Time;durP1;ratioP1;P1;durP2;ratioP2;P2;SDS_P1;SDS_P2;PMS_P1;PMS_P2;Temp;Humidity;BMP_temperature;BMP_pressure;BME280_temperature;BME280_humidity;BME280_pressure;Samples;Min_cycle;Max_cycle;Signal;HPM_P1;HPM_P2
2022/12/12 00:01:27;;;;;;;;;;;-3.80;99.90;;;;;;5041218;28;20338;-73
2022/12/12 00:03:59;;;;;;;;;;;-3.80;99.90;;;;;;5000740;28;19929;-73
2022/12/12 00:06:31;;;;;;;;;;;-3.80;99.90;;;;;;5016010;28;20376;-74
2022/12/12 00:09:02;;;;;;;;;;;-3.80;99.90;;;;;;5018046;28;19925;-73
2022/12/12 00:11:34;;;;;;;;;;;-3.80;99.90;;;;;;5040398;28;19932;-74
2022/12/12 00:14:06;;;;;;;;;;;-3.80;99.90;;;;;;5021028;28;19925;-75
2022/12/12 00:16:37;;;;;;;;;;;-3.90;99.90;;;;;;5036835;28;19925;-76
2022/12/12 00:19:09;;;;;;;;;;;-4.00;99.90;;;;;;5019145;28;19979;-76
2022/12/12 00:21:40;;;;;;;;;;;-4.00;99.90;;;;;;5034671;28;19925;-75
2022/12/12 00:24:12;;;;;;;;;;;-3.90;99.90;;;;;;5017432;28;19930;-76
2022/12/12 00:26:44;;;;;;;;;;;-4.00;99.90;;;;;;5003592;28;19928;-75
2022/12/12 00:29:15;;;;;;;;;;;-4.00;99.90;;;;;;5029217;28;19925;-75
2022/12/12 00:31:47;;;;;;;;;;;-4.10;99.90;;;;;;5038747;28;19929;-74
2022/12/12 00:34:18;;;;;;;;;;;-4.20;99.90;;;;;;5030638;28;19925;-77
2022/12/12 00:36:50;;;;;;;;;;;-4.30;99.90;;;;;;5029806;28;19940;-76
2022/12/12 00:39:22;;;;;;;;;;;-4.40;99.90;;;;;;5007006;28;20299;-74
2022/12/12 00:41:54;;;;;;;;;;;-4.30;99.90;;;;;;5038293;28;19928;-75
2022/12/12 00:44:25;;;;;;;;;;;-4.40;99.90;;;;;;5040608;28;19975;-76
2022/12/12 00:46:57;;;;;;;;;;;-4.30;99.90;;;;;;5025740;28;19924;-74
2022/12/12 00:49:29;;;;;;;;;;;-4.30;99.90;;;;;;5035075;28;19925;-75
2022/12/12 00:52:01;;;;;;;;;;;-4.30;99.90;;;;;;5021848;28;19931;-75
2022/12/12 00:54:33;;;;;;;;;;;-4.40;99.90;;;;;;5035345;28;19953;-75
2022/12/12 00:57:04;;;;;;;;;;;-4.30;99.90;;;;;;5041710;28;19925;-76
2022/12/12 00:59:36;;;;;;;;;;;-4.30;99.90;;;;;;5031892;28;19925;-75
2022/12/12 01:02:07;;;;;;;;;;;-4.30;99.90;;;;;;5049393;28;19925;-74
2022/12/12 01:04:39;;;;;;;;;;;-4.30;99.90;;;;;;5045041;28;19970;-75
2022/12/12 01:07:10;;;;;;;;;;;-4.30;99.90;;;;;;5033940;28;19933;-75
2022/12/12 01:09:42;;;;;;;;;;;-4.30;99.90;;;;;;5039770;28;19971;-75
2022/12/12 01:12:14;;;;;;;;;;;-4.30;99.90;;;;;;5049046;28;19925;-74
2022/12/12 01:14:45;;;;;;;;;;;-4.20;99.90;;;;;;5006361;28;19929;-74
2022/12/12 01:17:12;;;;;;;;;;;-4.30;99.90;;;;;;5037176;28;20376;-75
2022/12/12 01:19:44;;;;;;;;;;;-4.30;99.90;;;;;;5027549;28;19979;-74
2022/12/12 01:22:15;;;;;;;;;;;-4.20;99.90;;;;;;5039168;28;19972;-76
2022/12/12 01:24:47;;;;;;;;;;;-4.20;99.90;;;;;;5043304;28;19925;-75
2022/12/12 01:27:18;;;;;;;;;;;-4.20;99.90;;;;;;5040596;28;20487;-74
2022/12/12 01:29:50;;;;;;;;;;;-4.20;99.90;;;;;;5042315;28;20288;-75
2022/12/12 01:32:22;;;;;;;;;;;-4.20;99.90;;;;;;5012930;28;19941;-74
2022/12/12 01:34:54;;;;;;;;;;;-4.30;99.90;;;;;;5041544;28;19931;-74
2022/12/12 01:37:25;;;;;;;;;;;-4.30;99.90;;;;;;5044755;28;19948;-75
2022/12/12 01:39:57;;;;;;;;;;;-4.40;99.90;;;;;;5017486;28;20345;-76
2022/12/12 01:42:28;;;;;;;;;;;-4.40;99.90;;;;;;5024138;28;20323;-74
2022/12/12 01:45:00;;;;;;;;;;;-4.40;99.90;;;;;;5041944;28;20378;-74
2022/12/12 01:47:32;;;;;;;;;;;-4.40;99.90;;;;;;5018876;28;20022;-74
2022/12/12 01:50:06;;;;;;;;;;;-4.40;99.90;;;;;;5048398;28;19929;-74
2022/12/12 01:52:40;;;;;;;;;;;-4.40;99.90;;;;;;5012800;28;19931;-74
2022/12/12 01:55:15;;;;;;;;;;;-4.50;99.90;;;;;;5041894;28;19932;-74
2022/12/12 01:57:49;;;;;;;;;;;-4.50;99.90;;;;;;5019784;28;19929;-74
2022/12/12 02:00:21;;;;;;;;;;;-4.50;99.90;;;;;;5029727;28;19936;-74
2022/12/12 02:02:54;;;;;;;;;;;-4.50;99.90;;;;;;5045751;28;19925;-77
2022/12/12 02:05:31;;;;;;;;;;;-4.40;99.90;;;;;;5024960;28;19925;-74
2022/12/12 02:08:03;;;;;;;;;;;-4.50;99.90;;;;;;5025950;28;19933;-74
2022/12/12 02:10:35;;;;;;;;;;;-4.50;99.90;;;;;;5013539;28;19926;-74
2022/12/12 02:13:13;;;;;;;;;;;-4.50;99.90;;;;;;5035839;28;19925;-75
2022/12/12 02:16:04;;;;;;;;;;;-4.50;99.90;;;;;;5048252;28;20212;-76
2022/12/12 02:18:39;;;;;;;;;;;-4.50;99.90;;;;;;5038205;28;19928;-75
2022/12/12 02:21:14;;;;;;;;;;;-4.50;99.90;;;;;;5026609;28;20481;-74
2022/12/12 02:23:46;;;;;;;;;;;-4.50;99.90;;;;;;5035953;28;19929;-75
2022/12/12 02:26:42;;;;;;;;;;;-4.50;99.90;;;;;;5042472;28;19982;-75
2022/12/12 02:29:14;;;;;;;;;;;-4.50;99.90;;;;;;5041341;28;20031;-74
2022/12/12 02:31:50;;;;;;;;;;;-4.50;99.90;;;;;;5035414;28;19932;-75
2022/12/12 02:34:40;;;;;;;;;;;-4.60;99.90;;;;;;5042567;28;19990;-75
2022/12/12 02:37:19;;;;;;;;;;;-4.60;99.90;;;;;;5044882;28;19924;-75
2022/12/12 02:39:51;;;;;;;;;;;-4.60;99.90;;;;;;5007330;28;20023;-74
2022/12/12 02:42:35;;;;;;;;;;;-4.60;99.90;;;;;;5038299;28;19925;-74
2022/12/12 02:45:16;;;;;;;;;;;-4.70;99.90;;;;;;5021526;28;19936;-75
2022/12/12 02:47:52;;;;;;;;;;;-4.70;99.90;;;;;;5037464;28;19925;-74
2022/12/12 02:50:26;;;;;;;;;;;-4.80;99.90;;;;;;5033114;28;20307;-74
2022/12/12 02:52:57;;;;;;;;;;;-4.90;99.90;;;;;;5044668;28;19962;-74
2022/12/12 02:55:29;;;;;;;;;;;-4.90;99.90;;;;;;5026954;28;19929;-75
2022/12/12 02:58:01;;;;;;;;;;;-4.90;99.90;;;;;;5019092;28;19975;-75
2022/12/12 03:00:39;;;;;;;;;;;-5.00;99.90;;;;;;5001791;28;19929;-75
2022/12/12 03:09:26;;;;;;;;;;;-5.20;99.90;;;;;;5028673;28;20347;-74
2022/12/12 03:12:03;;;;;;;;;;;-5.30;99.90;;;;;;5037021;28;19925;-74
2022/12/12 03:14:46;;;;;;;;;;;-5.40;99.90;;;;;;5045459;28;19925;-74
2022/12/12 03:17:21;;;;;;;;;;;-5.40;99.90;;;;;;5039468;28;19983;-73
2022/12/12 03:19:52;;;;;;;;;;;-5.40;99.90;;;;;;5046922;28;20403;-73
2022/12/12 03:22:33;;;;;;;;;;;-5.40;99.90;;;;;;5018157;28;19929;-74
2022/12/12 03:25:09;;;;;;;;;;;-5.40;99.90;;;;;;5037423;28;20350;-73
2022/12/12 03:27:41;;;;;;;;;;;-5.30;99.90;;;;;;5022834;28;19952;-73
2022/12/12 03:30:14;;;;;;;;;;;-5.30;99.90;;;;;;5009295;28;19975;-74
2022/12/12 03:32:52;;;;;;;;;;;-5.30;99.90;;;;;;5034137;28;19932;-73
2022/12/12 03:35:31;;;;;;;;;;;-5.30;99.90;;;;;;5048287;28;19932;-73
2022/12/12 03:38:06;;;;;;;;;;;-5.30;99.90;;;;;;5006567;28;19925;-73
2022/12/12 03:40:42;;;;;;;;;;;-5.30;99.90;;;;;;5026410;28;19955;-74
2022/12/12 03:43:16;;;;;;;;;;;-5.20;99.90;;;;;;4993961;28;20396;-74
2022/12/12 03:45:51;;;;;;;;;;;-5.30;99.90;;;;;;5042329;28;20449;-73
2022/12/12 03:48:29;;;;;;;;;;;-5.30;99.90;;;;;;5022302;28;20308;-73
2022/12/12 03:51:08;;;;;;;;;;;-5.30;99.90;;;;;;5013993;28;19972;-74
2022/12/12 03:53:56;;;;;;;;;;;-5.30;99.90;;;;;;5014525;28;20339;-73
2022/12/12 03:56:27;;;;;;;;;;;-5.20;99.90;;;;;;5045063;28;19971;-74
2022/12/12 03:59:06;;;;;;;;;;;-5.10;99.90;;;;;;5046013;28;19925;-73
2022/12/12 04:02:03;;;;;;;;;;;-5.10;99.90;;;;;;5043205;28;19931;-74
2022/12/12 04:04:42;;;;;;;;;;;-5.20;99.90;;;;;;5015536;28;20434;-74
2022/12/12 04:07:28;;;;;;;;;;;-5.30;99.90;;;;;;5024743;28;19925;-76
2022/12/12 04:13:09;;;;;;;;;;;-5.30;99.90;;;;;;5004271;28;19925;-74
2022/12/12 04:15:45;;;;;;;;;;;-5.30;99.90;;;;;;5035906;28;20384;-73
2022/12/12 04:18:17;;;;;;;;;;;-5.30;99.90;;;;;;5014943;28;19925;-72
2022/12/12 04:24:01;;;;;;;;;;;-5.40;99.90;;;;;;5010405;28;19925;-76
2022/12/12 04:26:38;;;;;;;;;;;-5.40;99.90;;;;;;5020077;28;20326;-75
2022/12/12 04:29:29;;;;;;;;;;;-5.40;99.90;;;;;;5047169;28;19925;-75
2022/12/12 04:32:18;;;;;;;;;;;-5.00;99.90;;;;;;5041461;28;19929;-74
2022/12/12 04:34:52;;;;;;;;;;;-4.00;99.90;;;;;;5033535;28;20644;-75
2022/12/12 04:37:38;;;;;;;;;;;-4.10;99.90;;;;;;5038299;28;19925;-74
2022/12/12 04:40:13;;;;;;;;;;;-4.20;99.90;;;;;;5044356;28;19970;-76
2022/12/12 04:42:49;;;;;;;;;;;-4.40;99.90;;;;;;5008417;28;19971;-75
2022/12/12 04:45:26;;;;;;;;;;;-4.60;99.90;;;;;;5038344;28;19936;-75
2022/12/12 04:47:58;;;;;;;;;;;-4.60;99.90;;;;;;5043951;28;19928;-73
2022/12/12 04:50:30;;;;;;;;;;;-4.60;99.90;;;;;;5041025;28;19982;-74
2022/12/12 04:53:03;;;;;;;;;;;-4.60;99.90;;;;;;5030835;28;19937;-75
2022/12/12 04:55:39;;;;;;;;;;;-4.70;99.90;;;;;;5038909;28;20011;-73
2022/12/12 04:58:11;;;;;;;;;;;-4.70;99.90;;;;;;5026939;28;19953;-74
2022/12/12 05:00:46;;;;;;;;;;;-4.70;99.90;;;;;;5034187;28;19925;-72
2022/12/12 05:03:20;;;;;;;;;;;-4.70;99.90;;;;;;5031707;28;19924;-76
2022/12/12 05:06:03;;;;;;;;;;;-4.70;99.90;;;;;;5034298;28;20050;-75
2022/12/12 05:08:36;;;;;;;;;;;-4.70;99.90;;;;;;5043396;28;19924;-75
2022/12/12 05:11:09;;;;;;;;;;;-4.70;99.90;;;;;;5018062;28;19936;-77
2022/12/12 05:13:41;;;;;;;;;;;-4.70;99.90;;;;;;5034563;28;19925;-75
2022/12/12 05:16:17;;;;;;;;;;;-4.80;99.90;;;;;;5038633;28;20326;-75
2022/12/12 05:18:44;;;;;;;;;;;-4.80;99.90;;;;;;5016145;28;20476;-73
2022/12/12 05:21:16;;;;;;;;;;;-4.80;99.90;;;;;;5024547;28;19970;-71
2022/12/12 05:23:47;;;;;;;;;;;-4.80;99.90;;;;;;5033726;28;19979;-73
2022/12/12 05:26:22;;;;;;;;;;;-4.80;99.90;;;;;;5043854;28;19986;-73
2022/12/12 05:28:54;;;;;;;;;;;-4.80;99.90;;;;;;5013891;28;20543;-73
2022/12/12 05:31:25;;;;;;;;;;;-4.70;99.90;;;;;;5025594;28;19933;-73
2022/12/12 05:33:57;;;;;;;;;;;-4.80;99.90;;;;;;5037713;28;19932;-74
2022/12/12 05:36:28;;;;;;;;;;;-4.70;99.90;;;;;;5034163;28;19929;-73
2022/12/12 05:39:00;;;;;;;;;;;-4.70;99.90;;;;;;5023670;28;19975;-73
2022/12/12 05:41:31;;;;;;;;;;;-4.70;99.90;;;;;;5038448;28;19937;-73
2022/12/12 05:44:03;;;;;;;;;;;-4.70;99.90;;;;;;5033389;28;19925;-73
2022/12/12 05:46:35;;;;;;;;;;;-4.70;99.90;;;;;;5016886;28;19932;-72
2022/12/12 05:49:06;;;;;;;;;;;-4.80;99.90;;;;;;5032326;28;19925;-74
2022/12/12 05:51:38;;;;;;;;;;;-4.80;99.90;;;;;;5030017;28;19932;-72
2022/12/12 05:54:10;;;;;;;;;;;-4.80;99.90;;;;;;5031968;28;19925;-74
2022/12/12 05:56:41;;;;;;;;;;;-4.90;99.90;;;;;;5032869;28;19929;-72
2022/12/12 05:59:13;;;;;;;;;;;-5.10;99.90;;;;;;5043702;28;19941;-75
2022/12/12 06:01:44;;;;;;;;;;;-5.10;99.90;;;;;;5039806;28;19929;-73
2022/12/12 06:04:16;;;;;;;;;;;-5.20;99.90;;;;;;5020395;28;19925;-74
2022/12/12 06:06:48;;;;;;;;;;;-5.30;99.90;;;;;;5038812;28;19979;-74
2022/12/12 06:09:19;;;;;;;;;;;-5.30;99.90;;;;;;5001635;28;20462;-74
2022/12/12 06:11:51;;;;;;;;;;;-5.30;99.90;;;;;;5038011;28;19982;-73
2022/12/12 06:14:23;;;;;;;;;;;-5.30;99.90;;;;;;5041922;28;20515;-74
2022/12/12 06:16:55;;;;;;;;;;;-5.40;99.90;;;;;;5020787;28;19932;-74
2022/12/12 06:19:26;;;;;;;;;;;-5.30;99.90;;;;;;5038249;28;19929;-74
2022/12/12 06:21:58;;;;;;;;;;;-5.30;99.90;;;;;;5008819;28;20399;-74
2022/12/12 06:24:29;;;;;;;;;;;-5.20;99.90;;;;;;5041514;28;20804;-74
2022/12/12 06:27:01;;;;;;;;;;;-5.20;99.90;;;;;;5009987;28;19929;-74
2022/12/12 06:29:32;;;;;;;;;;;-5.10;99.90;;;;;;5039626;28;19933;-74
2022/12/12 06:32:04;;;;;;;;;;;-5.00;99.90;;;;;;5044754;28;19925;-73
2022/12/12 06:34:36;;;;;;;;;;;-5.00;99.90;;;;;;5023443;28;19932;-73
2022/12/12 06:37:08;;;;;;;;;;;-5.00;99.90;;;;;;5014824;28;20269;-73
2022/12/12 06:39:39;;;;;;;;;;;-4.90;99.90;;;;;;5042305;28;19925;-74
2022/12/12 06:42:11;;;;;;;;;;;-4.90;99.90;;;;;;5037625;28;19929;-74
2022/12/12 06:44:43;;;;;;;;;;;-4.90;99.90;;;;;;5040482;28;19933;-74
2022/12/12 06:47:14;;;;;;;;;;;-4.90;99.90;;;;;;5045563;28;20308;-73
2022/12/12 06:49:46;;;;;;;;;;;-4.90;99.90;;;;;;5024892;28;19937;-73
2022/12/12 06:52:18;;;;;;;;;;;-4.90;99.90;;;;;;5047009;28;19931;-73
2022/12/12 06:54:50;;;;;;;;;;;-4.80;99.90;;;;;;5035688;28;19929;-74
2022/12/12 06:57:21;;;;;;;;;;;-4.80;99.90;;;;;;4981069;28;19937;-73
2022/12/12 06:59:53;;;;;;;;;;;-4.80;99.90;;;;;;5042593;28;19978;-72
2022/12/12 07:02:24;;;;;;;;;;;-4.80;99.90;;;;;;5026117;28;19925;-74
2022/12/12 07:04:56;;;;;;;;;;;-4.70;99.90;;;;;;5041355;28;19979;-74
2022/12/12 07:07:28;;;;;;;;;;;-4.70;99.90;;;;;;5023773;28;19925;-73
2022/12/12 07:10:00;;;;;;;;;;;-4.70;99.90;;;;;;5039777;28;20337;-74
2022/12/12 07:12:31;;;;;;;;;;;-4.70;99.90;;;;;;5023012;28;20384;-74
2022/12/12 07:15:03;;;;;;;;;;;-4.70;99.90;;;;;;5034692;28;19929;-73
2022/12/12 07:17:34;;;;;;;;;;;-4.80;99.90;;;;;;5033428;28;19928;-75
2022/12/12 07:20:06;;;;;;;;;;;-4.70;99.90;;;;;;5027673;28;19925;-74
2022/12/12 07:22:38;;;;;;;;;;;-4.70;99.90;;;;;;5041674;28;19925;-74
2022/12/12 07:25:09;;;;;;;;;;;-4.70;99.90;;;;;;5033380;28;19932;-72
2022/12/12 07:27:41;;;;;;;;;;;-4.70;99.90;;;;;;5017945;28;19925;-75
2022/12/12 07:30:13;;;;;;;;;;;-4.90;99.90;;;;;;5019546;28;19929;-75
2022/12/12 07:32:44;;;;;;;;;;;-5.10;99.90;;;;;;5010767;28;19990;-74
2022/12/12 07:35:16;;;;;;;;;;;-5.30;99.90;;;;;;5028033;28;20327;-73
2022/12/12 07:37:48;;;;;;;;;;;-5.30;99.90;;;;;;5039775;28;19929;-75
2022/12/12 07:40:19;;;;;;;;;;;-5.30;99.90;;;;;;5037201;28;20388;-75
2022/12/12 07:42:51;;;;;;;;;;;-5.30;99.90;;;;;;5039806;28;19995;-74
2022/12/12 07:45:22;;;;;;;;;;;-5.40;99.90;;;;;;5040961;28;19925;-74
2022/12/12 07:47:54;;;;;;;;;;;-5.40;99.90;;;;;;5021710;28;19970;-74
2022/12/12 07:50:25;;;;;;;;;;;-5.60;99.90;;;;;;5042548;28;19925;-74
2022/12/12 07:52:57;;;;;;;;;;;-5.70;99.90;;;;;;5007638;28;19976;-74
2022/12/12 07:55:29;;;;;;;;;;;-5.80;99.90;;;;;;5035683;28;19925;-73
2022/12/12 07:58:00;;;;;;;;;;;-5.90;99.90;;;;;;5008184;28;20389;-73
2022/12/12 08:00:32;;;;;;;;;;;-5.90;99.90;;;;;;5039434;28;19928;-73
2022/12/12 08:02:58;;;;;;;;;;;-5.80;99.90;;;;;;5038004;28;19933;-73
2022/12/12 08:05:30;;;;;;;;;;;-5.70;99.90;;;;;;5040835;28;19929;-75
2022/12/12 08:08:01;;;;;;;;;;;-5.60;99.90;;;;;;5038985;28;19937;-79
2022/12/12 08:10:33;;;;;;;;;;;-5.50;99.90;;;;;;5023559;28;20343;-73
2022/12/12 08:13:05;;;;;;;;;;;-5.50;99.90;;;;;;5036187;28;19929;-74
2022/12/12 08:15:37;;;;;;;;;;;-5.40;99.90;;;;;;5035829;28;20379;-74
2022/12/12 08:18:08;;;;;;;;;;;-5.00;99.90;;;;;;5024546;28;19936;-74
2022/12/12 08:20:40;;;;;;;;;;;-4.70;99.90;;;;;;5021826;28;20347;-74
2022/12/12 08:23:12;;;;;;;;;;;-4.80;99.90;;;;;;5034646;28;19928;-73
2022/12/12 08:25:43;;;;;;;;;;;-5.00;99.90;;;;;;5036737;28;19928;-76
2022/12/12 08:28:15;;;;;;;;;;;-5.10;99.90;;;;;;5037434;28;19994;-74
2022/12/12 08:30:49;;;;;;;;;;;-5.10;99.90;;;;;;5035060;28;20465;-73
2022/12/12 08:33:21;;;;;;;;;;;-5.10;99.90;;;;;;4995919;28;20293;-73
2022/12/12 08:35:53;;;;;;;;;;;-5.10;99.90;;;;;;5037750;28;19929;-74
2022/12/12 08:38:25;;;;;;;;;;;-5.00;99.90;;;;;;5034991;28;19925;-73
2022/12/12 08:41:00;;;;;;;;;;;-4.90;99.90;;;;;;5022123;28;19924;-74
2022/12/12 08:43:32;;;;;;;;;;;-4.90;99.90;;;;;;5030930;28;19925;-74
2022/12/12 08:46:04;;;;;;;;;;;-4.80;99.90;;;;;;5001366;28;19987;-73
2022/12/12 08:48:35;;;;;;;;;;;-4.80;99.90;;;;;;5042208;28;19925;-73
2022/12/12 08:51:07;;;;;;;;;;;-4.70;99.90;;;;;;5009272;28;20306;-73
2022/12/12 08:53:39;;;;;;;;;;;-4.70;99.90;;;;;;5021159;28;19976;-75
2022/12/12 08:56:11;;;;;;;;;;;-4.60;99.90;;;;;;5023459;28;19928;-74
2022/12/12 08:58:42;;;;;;;;;;;-4.50;99.90;;;;;;5017784;28;19976;-74
2022/12/12 09:01:16;;;;;;;;;;;-4.50;99.90;;;;;;5014918;28;19932;-74
2022/12/12 09:03:49;;;;;;;;;;;-4.40;99.90;;;;;;5020140;28;19924;-74
2022/12/12 09:06:21;;;;;;;;;;;-4.30;99.90;;;;;;5029286;28;19932;-72
2022/12/12 09:08:54;;;;;;;;;;;-4.30;99.90;;;;;;5033244;28;19929;-72
2022/12/12 09:11:26;;;;;;;;;;;-4.20;99.90;;;;;;5034308;28;19925;-73
2022/12/12 09:13:57;;;;;;;;;;;-4.20;99.90;;;;;;5036849;28;19929;-73
2022/12/12 09:16:29;;;;;;;;;;;-4.20;99.90;;;;;;5037831;28;19972;-73
2022/12/12 09:19:00;;;;;;;;;;;-4.20;99.90;;;;;;5026941;28;19998;-73
2022/12/12 09:21:33;;;;;;;;;;;-4.20;99.90;;;;;;5015308;28;20375;-73
2022/12/12 09:24:04;;;;;;;;;;;-4.10;99.90;;;;;;5035770;28;19925;-74
2022/12/12 09:26:36;;;;;;;;;;;-4.00;99.90;;;;;;5029609;28;19978;-75
2022/12/12 09:29:09;;;;;;;;;;;-4.00;99.90;;;;;;5045150;28;20335;-75
2022/12/12 09:31:40;;;;;;;;;;;-3.90;99.90;;;;;;5026111;28;19928;-75
2022/12/12 09:34:07;;;;;;;;;;;-3.90;99.90;;;;;;5001307;28;20461;-74
2022/12/12 09:36:38;;;;;;;;;;;-3.80;99.90;;;;;;5031080;28;19979;-73
2022/12/12 09:39:10;;;;;;;;;;;-3.70;99.90;;;;;;5039191;28;19928;-72
2022/12/12 09:41:41;;;;;;;;;;;-3.70;99.90;;;;;;5043274;28;19975;-75
2022/12/12 09:44:17;;;;;;;;;;;-3.70;99.90;;;;;;5036257;28;20357;-72
2022/12/12 09:46:52;;;;;;;;;;;-3.60;99.90;;;;;;5049236;28;19952;-73
2022/12/12 09:49:44;;;;;;;;;;;-3.60;99.90;;;;;;5037027;28;19936;-72
2022/12/12 09:52:18;;;;;;;;;;;-3.50;99.90;;;;;;5028660;28;19951;-74
2022/12/12 09:54:49;;;;;;;;;;;-3.50;99.90;;;;;;5041147;28;20399;-74
2022/12/12 09:57:33;;;;;;;;;;;-3.50;99.90;;;;;;5020049;28;20338;-73
2022/12/12 10:00:12;;;;;;;;;;;-3.40;99.90;;;;;;5023118;28;19971;-74
2022/12/12 10:02:53;;;;;;;;;;;-3.30;99.90;;;;;;5019325;28;20380;-74
2022/12/12 10:05:44;;;;;;;;;;;-3.20;99.90;;;;;;5005062;28;19924;-75
2022/12/12 10:08:26;;;;;;;;;;;-3.20;99.90;;;;;;5020767;28;20302;-74
2022/12/12 10:11:03;;;;;;;;;;;-3.10;99.90;;;;;;5013718;28;20392;-74
2022/12/12 10:13:35;;;;;;;;;;;-3.10;99.90;;;;;;5039640;28;19928;-73
2022/12/12 10:16:08;;;;;;;;;;;-3.00;99.90;;;;;;5040339;28;19925;-73
2022/12/12 10:18:42;;;;;;;;;;;-3.00;99.90;;;;;;5035599;28;19925;-74
2022/12/12 10:21:20;;;;;;;;;;;-3.00;99.90;;;;;;5042151;28;19929;-72
2022/12/12 10:24:08;;;;;;;;;;;-3.00;99.90;;;;;;5042091;28;19979;-73
2022/12/12 10:26:41;;;;;;;;;;;-2.90;99.90;;;;;;5045902;28;20372;-73
2022/12/12 10:29:20;;;;;;;;;;;-2.80;99.90;;;;;;5034120;28;19925;-75
2022/12/12 10:32:01;;;;;;;;;;;-2.80;99.90;;;;;;5018061;28;19926;-72
2022/12/12 10:34:42;;;;;;;;;;;-2.80;99.90;;;;;;5046481;28;19978;-77
2022/12/12 10:37:24;;;;;;;;;;;-2.70;99.90;;;;;;5034697;28;19925;-74
2022/12/12 10:40:14;;;;;;;;;;;-2.70;99.90;;;;;;5043107;28;19929;-74
2022/12/12 10:42:50;;;;;;;;;;;-2.60;99.90;;;;;;5042810;28;19925;-74
2022/12/12 10:45:21;;;;;;;;;;;-2.60;99.90;;;;;;5046388;28;19925;-75
2022/12/12 10:47:53;;;;;;;;;;;-2.60;99.90;;;;;;5045894;28;19925;-74
2022/12/12 10:50:39;;;;;;;;;;;-2.60;99.90;;;;;;5036452;28;19975;-74
2022/12/12 10:53:11;;;;;;;;;;;-2.50;99.90;;;;;;5030318;28;19925;-74
2022/12/12 10:55:55;;;;;;;;;;;-2.50;99.90;;;;;;5035230;28;19925;-73
2022/12/12 10:58:34;;;;;;;;;;;-2.50;99.90;;;;;;5041501;28;19929;-76
2022/12/12 11:01:17;;;;;;;;;;;-2.40;99.90;;;;;;5035706;28;19924;-74
2022/12/12 11:03:50;;;;;;;;;;;-2.40;99.90;;;;;;5037749;28;19925;-73
2022/12/12 11:06:20;;;;;;;;;;;-2.40;99.90;;;;;;5020688;28;19931;-75
2022/12/12 11:08:59;;;;;;;;;;;-2.30;99.90;;;;;;5033516;28;19929;-74
2022/12/12 11:11:32;;;;;;;;;;;-2.30;99.90;;;;;;5015700;28;20015;-74
2022/12/12 11:14:18;;;;;;;;;;;-2.30;99.90;;;;;;5031197;28;19925;-76
2022/12/12 11:16:50;;;;;;;;;;;-2.20;99.90;;;;;;5016173;28;19975;-74
2022/12/12 11:19:23;;;;;;;;;;;-2.20;99.90;;;;;;5031284;28;19979;-74
2022/12/12 11:22:01;;;;;;;;;;;-2.10;99.90;;;;;;5037676;28;19947;-75
2022/12/12 11:24:33;;;;;;;;;;;-2.00;99.90;;;;;;5042660;28;19929;-75
2022/12/12 11:27:06;;;;;;;;;;;-2.00;99.90;;;;;;5021893;28;19925;-75
2022/12/12 11:29:45;;;;;;;;;;;-1.70;99.90;;;;;;5020341;28;19925;-73
2022/12/12 11:32:22;;;;;;;;;;;-1.60;99.90;;;;;;5038701;28;20342;-75
2022/12/12 11:34:59;;;;;;;;;;;-1.60;99.90;;;;;;5041835;28;19940;-74
2022/12/12 11:37:36;;;;;;;;;;;-1.60;99.90;;;;;;5046241;28;19925;-74
2022/12/12 11:40:18;;;;;;;;;;;-1.50;99.90;;;;;;5020979;28;19955;-75
2022/12/12 11:42:50;;;;;;;;;;;-1.40;99.90;;;;;;5037852;28;20003;-74
2022/12/12 11:45:22;;;;;;;;;;;-1.40;99.90;;;;;;5033800;28;19931;-74
2022/12/12 11:47:54;;;;;;;;;;;-1.40;99.90;;;;;;5040061;28;21065;-73
2022/12/12 11:50:27;;;;;;;;;;;-1.40;99.90;;;;;;5033763;28;19925;-74
2022/12/12 11:53:01;;;;;;;;;;;-1.30;99.90;;;;;;5030188;28;20427;-75
2022/12/12 11:55:44;;;;;;;;;;;-1.30;99.90;;;;;;5014890;28;19974;-75
2022/12/12 11:58:21;;;;;;;;;;;-1.30;99.90;;;;;;5036142;28;19978;-75
2022/12/12 12:01:01;;;;;;;;;;;-1.20;99.90;;;;;;5031822;28;19929;-74
2022/12/12 12:03:32;;;;;;;;;;;-1.20;99.90;;;;;;5033159;28;19943;-74
2022/12/12 12:06:16;;;;;;;;;;;-1.20;99.90;;;;;;5049076;28;19929;-74
2022/12/12 12:09:11;;;;;;;;;;;-1.30;99.90;;;;;;5031310;28;19933;-74
2022/12/12 12:11:43;;;;;;;;;;;-1.30;99.90;;;;;;5037830;28;20424;-74
2022/12/12 12:14:14;;;;;;;;;;;-1.20;99.90;;;;;;4994649;28;20008;-75
2022/12/12 12:16:49;;;;;;;;;;;-1.20;99.90;;;;;;4977913;28;19929;-76
2022/12/12 12:19:29;;;;;;;;;;;-1.20;99.90;;;;;;5041480;28;19929;-75
2022/12/12 12:22:01;;;;;;;;;;;-1.20;99.90;;;;;;5042759;28;19928;-75
2022/12/12 12:24:58;;;;;;;;;;;-1.20;99.90;;;;;;5027492;28;20574;-76
2022/12/12 12:27:35;;;;;;;;;;;-1.10;99.90;;;;;;5038626;28;20292;-75
2022/12/12 12:30:21;;;;;;;;;;;-1.20;99.90;;;;;;5020411;28;19983;-74
2022/12/12 12:33:03;;;;;;;;;;;-1.10;99.90;;;;;;5036333;28;19936;-74
2022/12/12 12:35:53;;;;;;;;;;;-1.10;99.90;;;;;;5034431;28;19940;-74
2022/12/12 12:38:31;;;;;;;;;;;-1.00;99.90;;;;;;5020624;28;20007;-76
2022/12/12 12:41:11;;;;;;;;;;;-1.00;99.90;;;;;;5037684;28;19932;-75
2022/12/12 12:43:52;;;;;;;;;;;-0.90;99.90;;;;;;5015883;28;20334;-75
2022/12/12 12:46:41;;;;;;;;;;;-0.90;99.90;;;;;;5033540;28;19979;-76
2022/12/12 12:49:25;;;;;;;;;;;-0.80;99.90;;;;;;5041350;28;19978;-75
2022/12/12 12:51:57;;;;;;;;;;;-0.70;99.90;;;;;;5037177;28;19929;-75
2022/12/12 12:54:32;;;;;;;;;;;-0.80;99.90;;;;;;5025008;28;20502;-74
2022/12/12 12:57:16;;;;;;;;;;;-0.80;99.90;;;;;;5042018;28;20387;-74
2022/12/12 12:59:52;;;;;;;;;;;-0.70;99.90;;;;;;5028476;28;19925;-74
2022/12/12 13:02:32;;;;;;;;;;;-0.60;99.90;;;;;;5002901;28;19925;-74
2022/12/12 13:05:05;;;;;;;;;;;-0.60;99.90;;;;;;4984836;28;20422;-74
2022/12/12 13:07:40;;;;;;;;;;;-0.60;99.90;;;;;;5038384;28;19925;-73
2022/12/12 13:10:22;;;;;;;;;;;-0.70;99.90;;;;;;5038938;28;19943;-75
2022/12/12 13:12:56;;;;;;;;;;;-0.60;99.90;;;;;;5051817;28;19924;-74
2022/12/12 13:15:39;;;;;;;;;;;-0.60;99.90;;;;;;5021382;28;19962;-74
2022/12/12 13:18:12;;;;;;;;;;;-0.60;99.90;;;;;;5038722;28;20229;-72
2022/12/12 13:20:46;;;;;;;;;;;-0.70;99.90;;;;;;5025003;28;20384;-74
2022/12/12 13:23:46;;;;;;;;;;;-0.60;99.90;;;;;;5039042;28;19929;-77
2022/12/12 13:26:17;;;;;;;;;;;-0.50;99.90;;;;;;5037745;28;20379;-75
2022/12/12 13:28:58;;;;;;;;;;;-0.40;99.90;;;;;;5044464;28;19925;-74
2022/12/12 13:32:02;;;;;;;;;;;-0.40;99.90;;;;;;5033493;28;19963;-73
2022/12/12 13:34:37;;;;;;;;;;;-0.40;99.90;;;;;;5013619;28;19932;-73
2022/12/12 13:37:13;;;;;;;;;;;-0.30;99.90;;;;;;5017958;28;20340;-74
2022/12/12 13:39:45;;;;;;;;;;;-0.20;99.90;;;;;;5047369;28;19932;-74
2022/12/12 13:42:18;;;;;;;;;;;-0.10;99.90;;;;;;5024645;28;19983;-73
2022/12/12 13:44:50;;;;;;;;;;;-0.10;99.90;;;;;;5041549;28;19932;-73
2022/12/12 13:47:22;;;;;;;;;;;-0.10;99.90;;;;;;5044416;28;19944;-75
2022/12/12 13:50:02;;;;;;;;;;;-0.10;99.90;;;;;;5049315;28;19929;-74
2022/12/12 13:52:39;;;;;;;;;;;-0.10;99.90;;;;;;5009875;28;20277;-75
2022/12/12 13:55:17;;;;;;;;;;;-0.10;99.90;;;;;;5009730;28;19990;-73
2022/12/12 13:57:49;;;;;;;;;;;-0.10;99.90;;;;;;5014606;28;19929;-74
2022/12/12 14:00:32;;;;;;;;;;;-0.20;99.90;;;;;;5048661;28;19925;-74
2022/12/12 14:03:06;;;;;;;;;;;-0.40;99.90;;;;;;5019178;28;20277;-74
2022/12/12 14:05:42;;;;;;;;;;;-0.60;99.90;;;;;;5043601;28;20267;-75
2022/12/12 14:08:13;;;;;;;;;;;-0.70;99.90;;;;;;5047375;28;19924;-73
2022/12/12 14:10:48;;;;;;;;;;;-0.80;99.90;;;;;;5024399;28;19932;-75
2022/12/12 14:13:19;;;;;;;;;;;-1.00;99.90;;;;;;5043940;28;19928;-74
2022/12/12 14:15:54;;;;;;;;;;;-1.10;99.90;;;;;;5028014;28;20403;-74
2022/12/12 14:18:36;;;;;;;;;;;-1.20;99.90;;;;;;5034985;28;19967;-74
2022/12/12 14:21:11;;;;;;;;;;;-1.30;99.90;;;;;;5025964;28;20388;-74
2022/12/12 14:23:43;;;;;;;;;;;-1.40;99.90;;;;;;5034276;28;19929;-75
2022/12/12 14:26:27;;;;;;;;;;;-1.40;99.90;;;;;;5035291;28;20324;-74
2022/12/12 14:29:17;;;;;;;;;;;-1.40;99.90;;;;;;5037460;28;19929;-74
2022/12/12 14:31:57;;;;;;;;;;;-1.40;99.90;;;;;;5027834;28;19936;-75
2022/12/12 14:34:31;;;;;;;;;;;-1.50;99.90;;;;;;5018898;28;19972;-75
2022/12/12 14:37:14;;;;;;;;;;;-1.50;99.90;;;;;;5023430;28;19956;-74
2022/12/12 14:40:04;;;;;;;;;;;-1.60;99.90;;;;;;5016920;28;19994;-74
2022/12/12 14:42:52;;;;;;;;;;;-1.60;99.90;;;;;;5033441;28;19963;-74
2022/12/12 14:45:28;;;;;;;;;;;-1.80;99.90;;;;;;5020171;28;19925;-74
2022/12/12 14:48:26;;;;;;;;;;;-1.90;99.90;;;;;;5006499;28;19925;-74
2022/12/12 14:51:10;;;;;;;;;;;-2.00;99.90;;;;;;5012643;28;19925;-73
2022/12/12 14:53:46;;;;;;;;;;;-2.10;99.90;;;;;;5030049;28;20445;-73
2022/12/12 14:56:18;;;;;;;;;;;-2.20;99.90;;;;;;5023759;28;20511;-74
2022/12/12 14:58:56;;;;;;;;;;;-2.30;99.90;;;;;;5023866;28;19956;-74
2022/12/12 15:01:28;;;;;;;;;;;-2.40;99.90;;;;;;5035544;28;19932;-74
2022/12/12 15:04:01;;;;;;;;;;;-2.50;99.90;;;;;;5030816;28;19925;-73
2022/12/12 15:06:36;;;;;;;;;;;-2.60;99.90;;;;;;5031340;28;19933;-75
2022/12/12 15:09:12;;;;;;;;;;;-2.60;99.90;;;;;;5024671;28;19987;-74
2022/12/12 15:11:45;;;;;;;;;;;-2.70;99.90;;;;;;5039603;28;19986;-74
2022/12/12 15:14:26;;;;;;;;;;;-2.90;99.90;;;;;;5018040;28;19928;-74